Garden Valley, Texas
Current Conditions -  °F | °C
As of 4:53 AM on Sunday 26 Oct 2014 (Local Time) from KTYR Reporting Station
Clear Clear  
Wind Chill: 63°   Ceiling: Unl
Heat Index: 63°   Visibility: 9mi
Dew Point: 59°   Wind: 6mph
Humidity: 87%   Direction: 190°S
Pressure: 30.02"   Gusts: NA
Location:  32.5326°N, 95.4249°W
Report Text: KTYR 260953Z AUTO 19005KT 9SM CLR 17/15 A3002 RMK AO2 SLP160 T01720150
Loading
Personal Weather Stations






























Interactive Weather Map
Tropical Storm Tracking
New forecast layout! Learn more

10-Day Weather Forecast

Advertisements
Track Severe Weather on mobile